sensor_id;sensor_type;location;lat;lon;timestamp;P1;durP1;ratioP1;P2;durP2;ratioP2
67248;SDS011;63247;54.300;18.592;2023-07-22T00:02:12;14.30;;;6.13;;
67248;SDS011;63247;54.300;18.592;2023-07-22T00:04:37;14.57;;;5.40;;
67248;SDS011;63247;54.300;18.592;2023-07-22T00:07:03;12.38;;;5.40;;
67248;SDS011;63247;54.300;18.592;2023-07-22T00:09:29;12.10;;;4.50;;
67248;SDS011;63247;54.300;18.592;2023-07-22T00:11:54;12.23;;;4.32;;
67248;SDS011;63247;54.300;18.592;2023-07-22T00:14:19;10.77;;;4.50;;
67248;SDS011;63247;54.300;18.592;2023-07-22T00:16:45;10.00;;;4.60;;
67248;SDS011;63247;54.300;18.592;2023-07-22T00:19:10;9.87;;;4.40;;
67248;SDS011;63247;54.300;18.592;2023-07-22T00:21:36;12.87;;;4.60;;
67248;SDS011;63247;54.300;18.592;2023-07-22T00:24:01;10.50;;;4.45;;
67248;SDS011;63247;54.300;18.592;2023-07-22T00:26:27;9.00;;;4.10;;
67248;SDS011;63247;54.300;18.592;2023-07-22T00:28:52;11.10;;;4.10;;
67248;SDS011;63247;54.300;18.592;2023-07-22T00:31:17;10.97;;;4.30;;
67248;SDS011;63247;54.300;18.592;2023-07-22T00:33:43;9.63;;;4.20;;
67248;SDS011;63247;54.300;18.592;2023-07-22T00:36:08;9.80;;;3.90;;
67248;SDS011;63247;54.300;18.592;2023-07-22T00:38:34;9.10;;;3.83;;
67248;SDS011;63247;54.300;18.592;2023-07-22T00:40:59;9.37;;;4.37;;
67248;SDS011;63247;54.300;18.592;2023-07-22T00:43:24;9.43;;;3.90;;
67248;SDS011;63247;54.300;18.592;2023-07-22T00:45:53;14.45;;;4.22;;
67248;SDS011;63247;54.300;18.592;2023-07-22T00:48:18;10.77;;;4.47;;
67248;SDS011;63247;54.300;18.592;2023-07-22T00:50:44;7.93;;;3.85;;
67248;SDS011;63247;54.300;18.592;2023-07-22T00:53:10;10.37;;;4.20;;
67248;SDS011;63247;54.300;18.592;2023-07-22T00:55:35;11.60;;;4.13;;
67248;SDS011;63247;54.300;18.592;2023-07-22T00:58:04;9.87;;;4.10;;
67248;SDS011;63247;54.300;18.592;2023-07-22T01:00:30;11.77;;;4.28;;
67248;SDS011;63247;54.300;18.592;2023-07-22T01:02:56;10.98;;;4.10;;
67248;SDS011;63247;54.300;18.592;2023-07-22T01:05:23;9.73;;;3.97;;
67248;SDS011;63247;54.300;18.592;2023-07-22T01:07:50;11.48;;;4.05;;
67248;SDS011;63247;54.300;18.592;2023-07-22T01:10:16;9.03;;;3.90;;
67248;SDS011;63247;54.300;18.592;2023-07-22T01:12:43;9.90;;;4.03;;
67248;SDS011;63247;54.300;18.592;2023-07-22T01:15:10;10.03;;;3.93;;
67248;SDS011;63247;54.300;18.592;2023-07-22T01:17:38;10.48;;;3.83;;
67248;SDS011;63247;54.300;18.592;2023-07-22T01:20:05;8.52;;;3.50;;
67248;SDS011;63247;54.300;18.592;2023-07-22T01:22:32;8.45;;;3.92;;
67248;SDS011;63247;54.300;18.592;2023-07-22T01:24:58;7.77;;;3.50;;
67248;SDS011;63247;54.300;18.592;2023-07-22T01:27:25;7.72;;;3.72;;
67248;SDS011;63247;54.300;18.592;2023-07-22T01:29:50;9.88;;;3.88;;
67248;SDS011;63247;54.300;18.592;2023-07-22T01:32:16;12.35;;;4.18;;
67248;SDS011;63247;54.300;18.592;2023-07-22T01:34:42;9.15;;;4.32;;
67248;SDS011;63247;54.300;18.592;2023-07-22T01:37:08;9.10;;;4.23;;
67248;SDS011;63247;54.300;18.592;2023-07-22T01:39:34;9.48;;;4.32;;
67248;SDS011;63247;54.300;18.592;2023-07-22T01:42:00;10.03;;;4.67;;
67248;SDS011;63247;54.300;18.592;2023-07-22T01:44:27;10.40;;;4.30;;
67248;SDS011;63247;54.300;18.592;2023-07-22T01:46:52;10.00;;;4.50;;
67248;SDS011;63247;54.300;18.592;2023-07-22T01:49:18;12.03;;;4.97;;
67248;SDS011;63247;54.300;18.592;2023-07-22T01:51:43;13.60;;;5.50;;
67248;SDS011;63247;54.300;18.592;2023-07-22T01:54:09;11.60;;;4.82;;
67248;SDS011;63247;54.300;18.592;2023-07-22T01:56:35;11.93;;;4.30;;
67248;SDS011;63247;54.300;18.592;2023-07-22T01:59:01;11.95;;;5.60;;
67248;SDS011;63247;54.300;18.592;2023-07-22T02:01:26;11.83;;;4.97;;
67248;SDS011;63247;54.300;18.592;2023-07-22T02:03:53;11.13;;;4.85;;
67248;SDS011;63247;54.300;18.592;2023-07-22T02:06:18;10.32;;;4.78;;
67248;SDS011;63247;54.300;18.592;2023-07-22T02:08:44;10.80;;;5.37;;
67248;SDS011;63247;54.300;18.592;2023-07-22T02:11:10;10.40;;;5.00;;
67248;SDS011;63247;54.300;18.592;2023-07-22T02:13:36;14.98;;;5.10;;
67248;SDS011;63247;54.300;18.592;2023-07-22T02:16:02;15.00;;;5.50;;
67248;SDS011;63247;54.300;18.592;2023-07-22T02:18:28;12.02;;;5.30;;
67248;SDS011;63247;54.300;18.592;2023-07-22T02:20:54;17.73;;;5.77;;
67248;SDS011;63247;54.300;18.592;2023-07-22T02:23:20;18.45;;;6.72;;
67248;SDS011;63247;54.300;18.592;2023-07-22T02:25:49;14.37;;;6.10;;
67248;SDS011;63247;54.300;18.592;2023-07-22T02:28:16;12.55;;;5.50;;
67248;SDS011;63247;54.300;18.592;2023-07-22T02:30:46;17.33;;;5.75;;
67248;SDS011;63247;54.300;18.592;2023-07-22T02:33:17;14.77;;;5.63;;
67248;SDS011;63247;54.300;18.592;2023-07-22T02:35:42;14.87;;;6.03;;
67248;SDS011;63247;54.300;18.592;2023-07-22T02:38:08;13.50;;;5.77;;
67248;SDS011;63247;54.300;18.592;2023-07-22T02:40:34;14.68;;;6.18;;
67248;SDS011;63247;54.300;18.592;2023-07-22T02:43:00;11.35;;;5.55;;
67248;SDS011;63247;54.300;18.592;2023-07-22T02:45:25;13.17;;;5.70;;
67248;SDS011;63247;54.300;18.592;2023-07-22T02:47:51;13.25;;;5.47;;
67248;SDS011;63247;54.300;18.592;2023-07-22T02:50:17;12.50;;;5.27;;
67248;SDS011;63247;54.300;18.592;2023-07-22T02:52:43;13.60;;;5.70;;
67248;SDS011;63247;54.300;18.592;2023-07-22T02:55:15;12.05;;;4.65;;
67248;SDS011;63247;54.300;18.592;2023-07-22T02:57:44;12.60;;;5.28;;
67248;SDS011;63247;54.300;18.592;2023-07-22T03:00:11;12.97;;;5.27;;
67248;SDS011;63247;54.300;18.592;2023-07-22T03:02:38;13.30;;;5.35;;
67248;SDS011;63247;54.300;18.592;2023-07-22T03:05:05;13.90;;;5.28;;
67248;SDS011;63247;54.300;18.592;2023-07-22T03:07:39;11.02;;;5.00;;
67248;SDS011;63247;54.300;18.592;2023-07-22T03:10:05;11.90;;;5.40;;
67248;SDS011;63247;54.300;18.592;2023-07-22T03:12:32;16.87;;;6.00;;
67248;SDS011;63247;54.300;18.592;2023-07-22T03:14:58;10.25;;;4.88;;
67248;SDS011;63247;54.300;18.592;2023-07-22T03:17:24;13.83;;;5.40;;
67248;SDS011;63247;54.300;18.592;2023-07-22T03:19:49;10.95;;;4.80;;
67248;SDS011;63247;54.300;18.592;2023-07-22T03:22:16;11.55;;;4.70;;
67248;SDS011;63247;54.300;18.592;2023-07-22T03:24:42;9.95;;;4.05;;
67248;SDS011;63247;54.300;18.592;2023-07-22T03:27:08;107.65;;;14.27;;
67248;SDS011;63247;54.300;18.592;2023-07-22T03:29:33;16.07;;;8.10;;
67248;SDS011;63247;54.300;18.592;2023-07-22T03:31:59;13.30;;;5.23;;
67248;SDS011;63247;54.300;18.592;2023-07-22T03:34:28;10.38;;;5.15;;
67248;SDS011;63247;54.300;18.592;2023-07-22T03:36:54;13.75;;;5.97;;
67248;SDS011;63247;54.300;18.592;2023-07-22T03:39:20;10.97;;;4.60;;
67248;SDS011;63247;54.300;18.592;2023-07-22T03:41:45;12.20;;;5.17;;
67248;SDS011;63247;54.300;18.592;2023-07-22T03:44:11;10.90;;;4.85;;
67248;SDS011;63247;54.300;18.592;2023-07-22T03:46:37;10.37;;;4.67;;
67248;SDS011;63247;54.300;18.592;2023-07-22T03:49:03;9.70;;;4.93;;
67248;SDS011;63247;54.300;18.592;2023-07-22T03:51:28;16.10;;;5.60;;
67248;SDS011;63247;54.300;18.592;2023-07-22T03:53:54;14.87;;;5.13;;
67248;SDS011;63247;54.300;18.592;2023-07-22T03:56:20;12.30;;;5.57;;
67248;SDS011;63247;54.300;18.592;2023-07-22T03:58:45;11.70;;;5.18;;
67248;SDS011;63247;54.300;18.592;2023-07-22T04:01:12;10.73;;;5.20;;
67248;SDS011;63247;54.300;18.592;2023-07-22T04:03:38;8.55;;;4.00;;
67248;SDS011;63247;54.300;18.592;2023-07-22T04:06:03;11.33;;;5.07;;
67248;SDS011;63247;54.300;18.592;2023-07-22T04:08:29;10.60;;;5.27;;
67248;SDS011;63247;54.300;18.592;2023-07-22T04:10:55;9.60;;;4.75;;
67248;SDS011;63247;54.300;18.592;2023-07-22T04:13:22;8.43;;;3.80;;
67248;SDS011;63247;54.300;18.592;2023-07-22T04:15:48;6.93;;;3.83;;
67248;SDS011;63247;54.300;18.592;2023-07-22T04:18:15;6.22;;;3.25;;
67248;SDS011;63247;54.300;18.592;2023-07-22T04:20:41;5.20;;;2.85;;
67248;SDS011;63247;54.300;18.592;2023-07-22T04:23:06;5.78;;;3.05;;
67248;SDS011;63247;54.300;18.592;2023-07-22T04:25:33;7.25;;;2.97;;
67248;SDS011;63247;54.300;18.592;2023-07-22T04:27:58;5.32;;;2.67;;
67248;SDS011;63247;54.300;18.592;2023-07-22T04:30:24;6.95;;;2.55;;
67248;SDS011;63247;54.300;18.592;2023-07-22T04:32:50;5.43;;;2.88;;
67248;SDS011;63247;54.300;18.592;2023-07-22T04:35:16;6.20;;;3.10;;
67248;SDS011;63247;54.300;18.592;2023-07-22T04:37:45;6.82;;;3.13;;
67248;SDS011;63247;54.300;18.592;2023-07-22T04:40:11;7.40;;;3.53;;
67248;SDS011;63247;54.300;18.592;2023-07-22T04:42:41;7.00;;;3.40;;
67248;SDS011;63247;54.300;18.592;2023-07-22T04:45:08;8.73;;;3.50;;
67248;SDS011;63247;54.300;18.592;2023-07-22T04:47:37;7.38;;;3.63;;
67248;SDS011;63247;54.300;18.592;2023-07-22T04:50:06;7.45;;;3.53;;
67248;SDS011;63247;54.300;18.592;2023-07-22T04:52:34;8.20;;;3.78;;
67248;SDS011;63247;54.300;18.592;2023-07-22T04:55:00;7.88;;;4.15;;
67248;SDS011;63247;54.300;18.592;2023-07-22T04:57:25;7.72;;;3.50;;
67248;SDS011;63247;54.300;18.592;2023-07-22T04:59:51;6.30;;;3.27;;
67248;SDS011;63247;54.300;18.592;2023-07-22T05:02:16;7.37;;;3.73;;
67248;SDS011;63247;54.300;18.592;2023-07-22T05:04:42;8.03;;;3.67;;
67248;SDS011;63247;54.300;18.592;2023-07-22T05:07:07;8.27;;;3.67;;
67248;SDS011;63247;54.300;18.592;2023-07-22T05:09:32;7.73;;;3.10;;
67248;SDS011;63247;54.300;18.592;2023-07-22T05:11:58;7.30;;;3.60;;
67248;SDS011;63247;54.300;18.592;2023-07-22T05:14:23;7.27;;;3.10;;
67248;SDS011;63247;54.300;18.592;2023-07-22T05:16:49;6.00;;;3.13;;
67248;SDS011;63247;54.300;18.592;2023-07-22T05:19:14;9.32;;;3.42;;
67248;SDS011;63247;54.300;18.592;2023-07-22T05:21:40;5.33;;;3.13;;
67248;SDS011;63247;54.300;18.592;2023-07-22T05:24:06;6.25;;;3.20;;
67248;SDS011;63247;54.300;18.592;2023-07-22T05:26:31;5.80;;;3.10;;
67248;SDS011;63247;54.300;18.592;2023-07-22T05:28:57;6.63;;;3.17;;
67248;SDS011;63247;54.300;18.592;2023-07-22T05:31:22;6.85;;;3.13;;
67248;SDS011;63247;54.300;18.592;2023-07-22T05:33:48;6.33;;;3.23;;
67248;SDS011;63247;54.300;18.592;2023-07-22T05:36:13;5.77;;;3.10;;
67248;SDS011;63247;54.300;18.592;2023-07-22T05:38:39;8.07;;;3.15;;
67248;SDS011;63247;54.300;18.592;2023-07-22T05:41:04;5.60;;;3.30;;
67248;SDS011;63247;54.300;18.592;2023-07-22T05:43:30;5.07;;;2.80;;
67248;SDS011;63247;54.300;18.592;2023-07-22T05:45:55;71.50;;;7.13;;
67248;SDS011;63247;54.300;18.592;2023-07-22T05:48:20;7.53;;;3.23;;
67248;SDS011;63247;54.300;18.592;2023-07-22T05:50:46;6.60;;;3.10;;
67248;SDS011;63247;54.300;18.592;2023-07-22T05:53:12;5.07;;;3.20;;
67248;SDS011;63247;54.300;18.592;2023-07-22T05:55:38;6.73;;;2.90;;
67248;SDS011;63247;54.300;18.592;2023-07-22T05:58:03;6.10;;;3.30;;
67248;SDS011;63247;54.300;18.592;2023-07-22T06:00:31;5.68;;;2.88;;
67248;SDS011;63247;54.300;18.592;2023-07-22T06:02:59;5.80;;;3.10;;
67248;SDS011;63247;54.300;18.592;2023-07-22T06:05:25;5.63;;;2.93;;
67248;SDS011;63247;54.300;18.592;2023-07-22T06:07:50;5.37;;;3.17;;
67248;SDS011;63247;54.300;18.592;2023-07-22T06:10:16;5.22;;;3.17;;
67248;SDS011;63247;54.300;18.592;2023-07-22T06:12:41;6.17;;;3.10;;
67248;SDS011;63247;54.300;18.592;2023-07-22T06:15:07;5.40;;;3.03;;
67248;SDS011;63247;54.300;18.592;2023-07-22T06:17:32;6.18;;;3.10;;
67248;SDS011;63247;54.300;18.592;2023-07-22T06:19:58;5.43;;;2.90;;
67248;SDS011;63247;54.300;18.592;2023-07-22T06:22:24;5.68;;;2.90;;
67248;SDS011;63247;54.300;18.592;2023-07-22T06:24:49;7.67;;;2.80;;
67248;SDS011;63247;54.300;18.592;2023-07-22T06:27:15;4.40;;;3.07;;
67248;SDS011;63247;54.300;18.592;2023-07-22T06:29:40;6.17;;;3.00;;
67248;SDS011;63247;54.300;18.592;2023-07-22T06:32:05;7.22;;;3.20;;
67248;SDS011;63247;54.300;18.592;2023-07-22T06:34:31;5.67;;;3.20;;
67248;SDS011;63247;54.300;18.592;2023-07-22T06:36:57;4.97;;;3.10;;
67248;SDS011;63247;54.300;18.592;2023-07-22T06:39:22;7.32;;;3.20;;
67248;SDS011;63247;54.300;18.592;2023-07-22T06:41:47;5.40;;;3.30;;
67248;SDS011;63247;54.300;18.592;2023-07-22T06:44:13;6.27;;;3.40;;
67248;SDS011;63247;54.300;18.592;2023-07-22T06:46:38;7.43;;;3.40;;
67248;SDS011;63247;54.300;18.592;2023-07-22T06:49:04;6.20;;;3.70;;
67248;SDS011;63247;54.300;18.592;2023-07-22T06:51:29;7.07;;;3.90;;
67248;SDS011;63247;54.300;18.592;2023-07-22T06:53:54;6.87;;;3.80;;
67248;SDS011;63247;54.300;18.592;2023-07-22T06:56:20;6.77;;;3.67;;
67248;SDS011;63247;54.300;18.592;2023-07-22T06:58:45;6.03;;;3.70;;
67248;SDS011;63247;54.300;18.592;2023-07-22T07:01:12;7.78;;;3.60;;
67248;SDS011;63247;54.300;18.592;2023-07-22T07:03:37;6.70;;;3.73;;
67248;SDS011;63247;54.300;18.592;2023-07-22T07:06:02;7.47;;;3.92;;
67248;SDS011;63247;54.300;18.592;2023-07-22T07:08:28;5.83;;;3.80;;
67248;SDS011;63247;54.300;18.592;2023-07-22T07:10:53;6.27;;;3.90;;
67248;SDS011;63247;54.300;18.592;2023-07-22T07:13:19;6.17;;;3.63;;
67248;SDS011;63247;54.300;18.592;2023-07-22T07:15:46;7.93;;;3.73;;
67248;SDS011;63247;54.300;18.592;2023-07-22T07:18:15;9.13;;;4.00;;
67248;SDS011;63247;54.300;18.592;2023-07-22T07:20:41;6.82;;;3.70;;
67248;SDS011;63247;54.300;18.592;2023-07-22T07:23:06;6.87;;;3.80;;
67248;SDS011;63247;54.300;18.592;2023-07-22T07:25:32;6.90;;;4.10;;
67248;SDS011;63247;54.300;18.592;2023-07-22T07:27:57;6.63;;;3.83;;
67248;SDS011;63247;54.300;18.592;2023-07-22T07:30:22;8.45;;;4.13;;
67248;SDS011;63247;54.300;18.592;2023-07-22T07:32:48;23.33;;;10.87;;
67248;SDS011;63247;54.300;18.592;2023-07-22T07:35:13;9.10;;;7.17;;
67248;SDS011;63247;54.300;18.592;2023-07-22T07:37:39;5.43;;;4.27;;
67248;SDS011;63247;54.300;18.592;2023-07-22T07:40:04;6.27;;;4.00;;
67248;SDS011;63247;54.300;18.592;2023-07-22T07:42:30;6.72;;;3.45;;
67248;SDS011;63247;54.300;18.592;2023-07-22T07:44:56;6.33;;;2.83;;
67248;SDS011;63247;54.300;18.592;2023-07-22T07:47:21;5.83;;;2.90;;
67248;SDS011;63247;54.300;18.592;2023-07-22T07:49:47;10.30;;;2.93;;
67248;SDS011;63247;54.300;18.592;2023-07-22T07:52:12;4.88;;;3.08;;
67248;SDS011;63247;54.300;18.592;2023-07-22T07:54:38;5.50;;;3.00;;
67248;SDS011;63247;54.300;18.592;2023-07-22T07:57:03;6.57;;;3.27;;
67248;SDS011;63247;54.300;18.592;2023-07-22T07:59:29;8.80;;;3.17;;
67248;SDS011;63247;54.300;18.592;2023-07-22T08:01:55;7.43;;;3.77;;
67248;SDS011;63247;54.300;18.592;2023-07-22T08:04:20;7.10;;;3.73;;
67248;SDS011;63247;54.300;18.592;2023-07-22T08:06:45;9.50;;;3.92;;
67248;SDS011;63247;54.300;18.592;2023-07-22T08:09:11;6.35;;;3.28;;
67248;SDS011;63247;54.300;18.592;2023-07-22T08:11:43;8.95;;;3.50;;
67248;SDS011;63247;54.300;18.592;2023-07-22T08:14:08;7.63;;;3.73;;
67248;SDS011;63247;54.300;18.592;2023-07-22T08:16:34;7.07;;;4.07;;
67248;SDS011;63247;54.300;18.592;2023-07-22T08:19:00;5.90;;;3.80;;
67248;SDS011;63247;54.300;18.592;2023-07-22T08:21:25;7.33;;;3.80;;
67248;SDS011;63247;54.300;18.592;2023-07-22T08:23:51;7.67;;;4.00;;
67248;SDS011;63247;54.300;18.592;2023-07-22T08:26:16;7.53;;;3.88;;
67248;SDS011;63247;54.300;18.592;2023-07-22T08:28:47;6.07;;;4.00;;
67248;SDS011;63247;54.300;18.592;2023-07-22T08:31:12;7.97;;;4.50;;
67248;SDS011;63247;54.300;18.592;2023-07-22T08:33:38;7.57;;;4.17;;
67248;SDS011;63247;54.300;18.592;2023-07-22T08:36:03;6.78;;;3.88;;
67248;SDS011;63247;54.300;18.592;2023-07-22T08:38:30;7.15;;;3.80;;
67248;SDS011;63247;54.300;18.592;2023-07-22T08:40:56;6.20;;;3.53;;
67248;SDS011;63247;54.300;18.592;2023-07-22T08:43:21;6.27;;;3.80;;
67248;SDS011;63247;54.300;18.592;2023-07-22T08:45:48;5.53;;;3.47;;
67248;SDS011;63247;54.300;18.592;2023-07-22T08:48:17;6.18;;;3.45;;
67248;SDS011;63247;54.300;18.592;2023-07-22T08:53:14;5.63;;;3.72;;
67248;SDS011;63247;54.300;18.592;2023-07-22T08:55:41;5.93;;;3.38;;
67248;SDS011;63247;54.300;18.592;2023-07-22T08:58:10;7.15;;;3.38;;
67248;SDS011;63247;54.300;18.592;2023-07-22T09:00:37;5.75;;;3.53;;
67248;SDS011;63247;54.300;18.592;2023-07-22T09:03:04;5.40;;;3.30;;
67248;SDS011;63247;54.300;18.592;2023-07-22T09:05:31;5.82;;;3.35;;
67248;SDS011;63247;54.300;18.592;2023-07-22T09:07:58;7.47;;;3.70;;
67248;SDS011;63247;54.300;18.592;2023-07-22T09:10:24;5.85;;;3.60;;
67248;SDS011;63247;54.300;18.592;2023-07-22T09:12:52;7.30;;;3.47;;
67248;SDS011;63247;54.300;18.592;2023-07-22T09:15:18;5.32;;;3.55;;
67248;SDS011;63247;54.300;18.592;2023-07-22T09:17:44;6.73;;;3.40;;
67248;SDS011;63247;54.300;18.592;2023-07-22T09:20:11;6.35;;;3.50;;
67248;SDS011;63247;54.300;18.592;2023-07-22T09:22:47;6.25;;;3.85;;
67248;SDS011;63247;54.300;18.592;2023-07-22T09:25:21;7.93;;;3.88;;
67248;SDS011;63247;54.300;18.592;2023-07-22T09:27:54;6.25;;;4.20;;
67248;SDS011;63247;54.300;18.592;2023-07-22T09:33:01;7.68;;;4.72;;
67248;SDS011;63247;54.300;18.592;2023-07-22T09:38:09;6.75;;;4.00;;
67248;SDS011;63247;54.300;18.592;2023-07-22T09:40:34;5.50;;;4.23;;
67248;SDS011;63247;54.300;18.592;2023-07-22T09:43:01;5.07;;;3.38;;
67248;SDS011;63247;54.300;18.592;2023-07-22T09:45:28;5.30;;;3.40;;
67248;SDS011;63247;54.300;18.592;2023-07-22T09:47:55;4.70;;;3.28;;
67248;SDS011;63247;54.300;18.592;2023-07-22T09:50:21;6.05;;;3.38;;
67248;SDS011;63247;54.300;18.592;2023-07-22T09:52:49;4.30;;;2.55;;
67248;SDS011;63247;54.300;18.592;2023-07-22T09:55:19;4.40;;;2.90;;
67248;SDS011;63247;54.300;18.592;2023-07-22T09:57:47;4.28;;;2.75;;
67248;SDS011;63247;54.300;18.592;2023-07-22T10:00:15;5.05;;;2.40;;
67248;SDS011;63247;54.300;18.592;2023-07-22T10:02:44;3.88;;;2.30;;
67248;SDS011;63247;54.300;18.592;2023-07-22T10:05:13;5.05;;;2.58;;
67248;SDS011;63247;54.300;18.592;2023-07-22T10:07:45;5.33;;;2.40;;
67248;SDS011;63247;54.300;18.592;2023-07-22T10:10:16;3.90;;;2.22;;
67248;SDS011;63247;54.300;18.592;2023-07-22T10:12:43;5.10;;;2.50;;
67248;SDS011;63247;54.300;18.592;2023-07-22T10:15:13;4.40;;;2.50;;
67248;SDS011;63247;54.300;18.592;2023-07-22T10:17:43;4.53;;;2.50;;
67248;SDS011;63247;54.300;18.592;2023-07-22T10:20:09;3.67;;;2.10;;
67248;SDS011;63247;54.300;18.592;2023-07-22T10:22:40;4.40;;;2.30;;
67248;SDS011;63247;54.300;18.592;2023-07-22T10:25:10;5.40;;;2.15;;
67248;SDS011;63247;54.300;18.592;2023-07-22T10:27:37;5.57;;;2.10;;
67248;SDS011;63247;54.300;18.592;2023-07-22T10:30:05;3.78;;;1.98;;
67248;SDS011;63247;54.300;18.592;2023-07-22T10:32:35;4.27;;;2.20;;
67248;SDS011;63247;54.300;18.592;2023-07-22T10:35:01;6.72;;;2.30;;
67248;SDS011;63247;54.300;18.592;2023-07-22T10:37:34;7.13;;;2.70;;
67248;SDS011;63247;54.300;18.592;2023-07-22T10:40:00;12.02;;;3.08;;
67248;SDS011;63247;54.300;18.592;2023-07-22T10:43:23;8.70;;;2.38;;
67248;SDS011;63247;54.300;18.592;2023-07-22T10:45:41;4.43;;;2.17;;
67248;SDS011;63247;54.300;18.592;2023-07-22T10:48:09;4.78;;;2.40;;
67248;SDS011;63247;54.300;18.592;2023-07-22T10:50:41;4.88;;;2.60;;
67248;SDS011;63247;54.300;18.592;2023-07-22T10:53:20;5.47;;;2.60;;
67248;SDS011;63247;54.300;18.592;2023-07-22T10:58:32;4.13;;;2.30;;
67248;SDS011;63247;54.300;18.592;2023-07-22T11:06:35;5.82;;;2.50;;
67248;SDS011;63247;54.300;18.592;2023-07-22T11:09:02;18.38;;;4.55;;
67248;SDS011;63247;54.300;18.592;2023-07-22T11:12:02;10.77;;;2.97;;
67248;SDS011;63247;54.300;18.592;2023-07-22T11:14:27;21.10;;;4.50;;
67248;SDS011;63247;54.300;18.592;2023-07-22T11:16:57;56.15;;;6.80;;
67248;SDS011;63247;54.300;18.592;2023-07-22T11:19:24;20.52;;;3.15;;
67248;SDS011;63247;54.300;18.592;2023-07-22T11:21:51;9.38;;;2.88;;
67248;SDS011;63247;54.300;18.592;2023-07-22T11:24:18;53.72;;;6.95;;
67248;SDS011;63247;54.300;18.592;2023-07-22T11:26:45;13.15;;;2.60;;
67248;SDS011;63247;54.300;18.592;2023-07-22T11:29:12;4.85;;;2.20;;
67248;SDS011;63247;54.300;18.592;2023-07-22T11:31:39;16.35;;;2.88;;
67248;SDS011;63247;54.300;18.592;2023-07-22T11:34:10;20.60;;;3.40;;
67248;SDS011;63247;54.300;18.592;2023-07-22T11:36:43;16.58;;;2.83;;
67248;SDS011;63247;54.300;18.592;2023-07-22T11:39:10;11.02;;;2.40;;
67248;SDS011;63247;54.300;18.592;2023-07-22T11:41:38;28.95;;;4.03;;
67248;SDS011;63247;54.300;18.592;2023-07-22T11:44:06;7.88;;;2.40;;
67248;SDS011;63247;54.300;18.592;2023-07-22T11:46:57;8.27;;;2.25;;
67248;SDS011;63247;54.300;18.592;2023-07-22T11:51:58;5.85;;;2.10;;
67248;SDS011;63247;54.300;18.592;2023-07-22T11:54:36;7.60;;;2.17;;
67248;SDS011;63247;54.300;18.592;2023-07-22T11:57:11;3.08;;;1.85;;
67248;SDS011;63247;54.300;18.592;2023-07-22T11:59:53;4.35;;;1.85;;
67248;SDS011;63247;54.300;18.592;2023-07-22T12:02:29;4.40;;;1.88;;
67248;SDS011;63247;54.300;18.592;2023-07-22T12:07:27;3.53;;;1.67;;
67248;SDS011;63247;54.300;18.592;2023-07-22T12:09:54;3.28;;;1.80;;
67248;SDS011;63247;54.300;18.592;2023-07-22T12:12:21;3.35;;;1.55;;
67248;SDS011;63247;54.300;18.592;2023-07-22T12:14:46;12.38;;;2.30;;
67248;SDS011;63247;54.300;18.592;2023-07-22T12:17:12;4.00;;;1.80;;
67248;SDS011;63247;54.300;18.592;2023-07-22T12:19:37;15.70;;;2.50;;
67248;SDS011;63247;54.300;18.592;2023-07-22T12:22:02;5.43;;;1.90;;
67248;SDS011;63247;54.300;18.592;2023-07-22T12:24:28;7.15;;;1.92;;
67248;SDS011;63247;54.300;18.592;2023-07-22T12:26:54;3.58;;;1.80;;
67248;SDS011;63247;54.300;18.592;2023-07-22T12:29:20;8.00;;;1.60;;
67248;SDS011;63247;54.300;18.592;2023-07-22T12:31:47;4.15;;;1.20;;
67248;SDS011;63247;54.300;18.592;2023-07-22T12:34:12;3.70;;;1.00;;
67248;SDS011;63247;54.300;18.592;2023-07-22T12:36:38;4.33;;;1.27;;
67248;SDS011;63247;54.300;18.592;2023-07-22T12:39:03;3.65;;;1.40;;
67248;SDS011;63247;54.300;18.592;2023-07-22T12:41:30;5.35;;;1.52;;
67248;SDS011;63247;54.300;18.592;2023-07-22T12:43:55;3.63;;;1.67;;
67248;SDS011;63247;54.300;18.592;2023-07-22T12:46:21;4.20;;;1.60;;
67248;SDS011;63247;54.300;18.592;2023-07-22T12:48:46;3.47;;;1.50;;
67248;SDS011;63247;54.300;18.592;2023-07-22T12:51:11;3.50;;;1.48;;
67248;SDS011;63247;54.300;18.592;2023-07-22T12:53:38;3.30;;;1.50;;
67248;SDS011;63247;54.300;18.592;2023-07-22T12:56:03;3.08;;;1.42;;
67248;SDS011;63247;54.300;18.592;2023-07-22T12:58:30;3.35;;;1.50;;
67248;SDS011;63247;54.300;18.592;2023-07-22T13:00:56;4.00;;;1.60;;
67248;SDS011;63247;54.300;18.592;2023-07-22T13:03:21;3.30;;;1.57;;
67248;SDS011;63247;54.300;18.592;2023-07-22T13:05:47;4.83;;;1.50;;
67248;SDS011;63247;54.300;18.592;2023-07-22T13:08:12;3.88;;;1.48;;
67248;SDS011;63247;54.300;18.592;2023-07-22T13:10:38;3.90;;;1.67;;
67248;SDS011;63247;54.300;18.592;2023-07-22T13:13:04;3.95;;;1.50;;
67248;SDS011;63247;54.300;18.592;2023-07-22T13:15:31;5.15;;;1.30;;
67248;SDS011;63247;54.300;18.592;2023-07-22T13:17:57;4.05;;;1.58;;
67248;SDS011;63247;54.300;18.592;2023-07-22T13:20:23;2.97;;;1.30;;
67248;SDS011;63247;54.300;18.592;2023-07-22T13:22:48;5.50;;;1.90;;
67248;SDS011;63247;54.300;18.592;2023-07-22T13:25:13;3.88;;;1.80;;
67248;SDS011;63247;54.300;18.592;2023-07-22T13:27:39;3.33;;;1.50;;
67248;SDS011;63247;54.300;18.592;2023-07-22T13:30:08;3.78;;;1.52;;
67248;SDS011;63247;54.300;18.592;2023-07-22T13:32:34;3.40;;;1.60;;
67248;SDS011;63247;54.300;18.592;2023-07-22T13:35:00;6.53;;;1.77;;
67248;SDS011;63247;54.300;18.592;2023-07-22T13:37:25;4.00;;;1.70;;
67248;SDS011;63247;54.300;18.592;2023-07-22T13:39:51;4.77;;;1.50;;
67248;SDS011;63247;54.300;18.592;2023-07-22T13:42:16;4.70;;;1.92;;
67248;SDS011;63247;54.300;18.592;2023-07-22T13:44:41;3.57;;;1.70;;
67248;SDS011;63247;54.300;18.592;2023-07-22T13:47:07;3.27;;;1.50;;
67248;SDS011;63247;54.300;18.592;2023-07-22T13:49:32;4.17;;;1.90;;
67248;SDS011;63247;54.300;18.592;2023-07-22T13:51:58;5.67;;;1.70;;
67248;SDS011;63247;54.300;18.592;2023-07-22T13:54:23;3.70;;;1.90;;
67248;SDS011;63247;54.300;18.592;2023-07-22T13:56:48;5.63;;;1.90;;
67248;SDS011;63247;54.300;18.592;2023-07-22T13:59:14;5.50;;;1.73;;
67248;SDS011;63247;54.300;18.592;2023-07-22T14:01:39;5.30;;;1.70;;
67248;SDS011;63247;54.300;18.592;2023-07-22T14:04:05;4.05;;;1.63;;
67248;SDS011;63247;54.300;18.592;2023-07-22T14:06:30;5.95;;;1.75;;
67248;SDS011;63247;54.300;18.592;2023-07-22T14:08:57;3.92;;;1.52;;
67248;SDS011;63247;54.300;18.592;2023-07-22T14:11:23;3.87;;;1.70;;
67248;SDS011;63247;54.300;18.592;2023-07-22T14:13:48;5.72;;;1.88;;
67248;SDS011;63247;54.300;18.592;2023-07-22T14:16:16;6.45;;;1.70;;
67248;SDS011;63247;54.300;18.592;2023-07-22T14:18:41;4.15;;;1.80;;
67248;SDS011;63247;54.300;18.592;2023-07-22T14:21:06;9.10;;;1.90;;
67248;SDS011;63247;54.300;18.592;2023-07-22T14:23:33;4.25;;;1.33;;
67248;SDS011;63247;54.300;18.592;2023-07-22T14:25:58;3.63;;;1.40;;
67248;SDS011;63247;54.300;18.592;2023-07-22T14:28:23;4.07;;;1.47;;
67248;SDS011;63247;54.300;18.592;2023-07-22T14:30:49;7.23;;;1.60;;
67248;SDS011;63247;54.300;18.592;2023-07-22T14:33:14;4.63;;;1.50;;
67248;SDS011;63247;54.300;18.592;2023-07-22T14:35:39;19.83;;;2.85;;
67248;SDS011;63247;54.300;18.592;2023-07-22T14:38:05;5.63;;;1.73;;
67248;SDS011;63247;54.300;18.592;2023-07-22T14:40:31;9.43;;;2.42;;
67248;SDS011;63247;54.300;18.592;2023-07-22T14:42:56;8.63;;;2.60;;
67248;SDS011;63247;54.300;18.592;2023-07-22T14:45:22;4.20;;;2.00;;
67248;SDS011;63247;54.300;18.592;2023-07-22T14:47:47;10.70;;;2.60;;
67248;SDS011;63247;54.300;18.592;2023-07-22T14:50:13;11.98;;;2.92;;